createdAt,value
2018-09-30T00:00:03.225Z,7.50
2018-09-30T00:02:31.694Z,7.50
2018-09-30T00:05:00.118Z,7.50
2018-09-30T00:07:28.527Z,7.50
2018-09-30T00:09:57.877Z,7.40
2018-09-30T00:12:26.300Z,7.40
2018-09-30T00:14:54.738Z,7.40
2018-09-30T00:17:23.160Z,7.30
2018-09-30T00:19:51.569Z,7.30
2018-09-30T00:22:19.970Z,7.30
2018-09-30T00:24:53.781Z,7.30
2018-09-30T00:27:22.697Z,7.20
2018-09-30T00:29:51.129Z,7.30
2018-09-30T00:32:19.687Z,7.20
2018-09-30T00:34:48.091Z,7.20
2018-09-30T00:37:16.483Z,7.10
2018-09-30T00:39:44.897Z,7.10
2018-09-30T00:42:13.422Z,7.10
2018-09-30T00:44:41.846Z,7.00
2018-09-30T00:47:10.298Z,7.00
2018-09-30T00:49:38.810Z,7.00
2018-09-30T00:52:07.215Z,7.00
2018-09-30T00:54:35.681Z,7.00
2018-09-30T00:57:04.162Z,6.90
2018-09-30T01:04:25.077Z,6.80
2018-09-30T01:06:53.485Z,6.70
2018-09-30T01:09:21.874Z,6.70
2018-09-30T01:11:50.357Z,6.70
2018-09-30T01:14:18.789Z,6.70
2018-09-30T01:16:47.220Z,6.80
2018-09-30T01:19:15.751Z,6.70
2018-09-30T01:21:44.152Z,6.70
2018-09-30T01:24:12.550Z,6.70
2018-09-30T01:26:41.073Z,6.60
2018-09-30T01:29:09.505Z,6.60
2018-09-30T01:31:37.950Z,6.60
2018-09-30T01:34:06.354Z,6.60
2018-09-30T01:36:34.733Z,6.50
2018-09-30T01:39:03.210Z,6.40
2018-09-30T01:41:31.636Z,6.40
2018-09-30T01:43:59.999Z,6.30
2018-09-30T01:46:28.395Z,6.40
2018-09-30T01:48:56.811Z,6.40
2018-09-30T01:51:25.262Z,6.40
2018-09-30T01:53:53.705Z,6.30
2018-09-30T01:56:22.188Z,6.30
2018-09-30T01:58:50.625Z,6.30
2018-09-30T02:01:19.013Z,6.20
2018-09-30T02:03:47.533Z,6.10
2018-09-30T02:06:16.028Z,6.10
2018-09-30T02:08:44.423Z,6.10
2018-09-30T02:11:12.883Z,6.10
2018-09-30T02:13:41.316Z,6.00
2018-09-30T02:16:09.777Z,6.00
2018-09-30T02:18:38.229Z,6.00
2018-09-30T02:21:06.713Z,6.00
2018-09-30T02:23:35.208Z,6.00
2018-09-30T02:26:03.755Z,6.00
2018-09-30T02:28:32.146Z,5.90
2018-09-30T02:31:00.550Z,5.90
2018-09-30T02:33:29.686Z,5.80
2018-09-30T02:35:58.135Z,5.80
2018-09-30T02:38:26.545Z,5.80
2018-09-30T02:40:54.982Z,5.80
2018-09-30T02:43:23.443Z,5.70
2018-09-30T02:45:51.966Z,5.70
2018-09-30T02:48:20.366Z,5.80
2018-09-30T02:50:48.774Z,5.80
2018-09-30T02:53:17.214Z,5.80
2018-09-30T02:55:45.796Z,5.80
2018-09-30T02:58:14.205Z,5.80
2018-09-30T03:00:42.662Z,5.70
2018-09-30T03:03:11.034Z,5.70
2018-09-30T03:05:39.597Z,5.70
2018-09-30T03:08:13.494Z,5.60
2018-09-30T03:10:41.943Z,5.60
2018-09-30T03:13:10.374Z,5.60
2018-09-30T03:15:38.816Z,5.60
2018-09-30T03:18:07.230Z,5.60
2018-09-30T03:20:35.633Z,5.60
2018-09-30T03:23:04.049Z,5.50
2018-09-30T03:25:32.435Z,5.50
2018-09-30T03:28:00.869Z,5.40
2018-09-30T03:30:29.274Z,5.30
2018-09-30T03:32:57.698Z,5.30
2018-09-30T03:35:26.226Z,5.20
2018-09-30T03:37:54.635Z,5.10
2018-09-30T03:40:23.138Z,5.10
2018-09-30T03:42:51.588Z,5.10
2018-09-30T03:45:20.006Z,5.20
2018-09-30T03:47:48.464Z,5.20
2018-09-30T03:50:16.855Z,5.30
2018-09-30T03:52:45.270Z,5.20
2018-09-30T03:55:13.649Z,5.30
2018-09-30T03:57:42.819Z,5.20
2018-09-30T04:00:11.369Z,5.20
2018-09-30T04:02:39.811Z,5.20
2018-09-30T04:05:08.300Z,5.20
2018-09-30T04:07:36.738Z,5.20
2018-09-30T04:10:05.283Z,5.10
2018-09-30T04:12:33.611Z,4.90
2018-09-30T04:15:02.031Z,4.80
2018-09-30T04:17:30.487Z,4.80
2018-09-30T04:19:58.926Z,4.90
2018-09-30T04:22:27.896Z,4.90
2018-09-30T04:24:56.334Z,4.90
2018-09-30T04:27:24.757Z,4.80
2018-09-30T04:29:53.194Z,4.90
2018-09-30T04:32:21.570Z,4.80
2018-09-30T04:34:50.606Z,4.80
2018-09-30T04:37:18.990Z,4.90
2018-09-30T04:39:48.038Z,4.80
2018-09-30T04:42:16.478Z,4.70
2018-09-30T04:44:45.453Z,4.70
2018-09-30T04:47:13.890Z,4.60
2018-09-30T04:49:42.338Z,4.60
2018-09-30T04:52:10.745Z,4.70
2018-09-30T04:54:39.189Z,4.60
2018-09-30T04:57:07.662Z,4.60
2018-09-30T04:59:36.069Z,4.60
2018-09-30T05:02:04.497Z,4.60
2018-09-30T05:04:32.903Z,4.60
2018-09-30T05:07:01.292Z,4.50
2018-09-30T05:09:29.733Z,4.50
2018-09-30T05:11:58.149Z,4.50
2018-09-30T05:14:26.558Z,4.50
2018-09-30T05:16:55.017Z,4.50
2018-09-30T05:19:23.473Z,4.50
2018-09-30T05:21:51.944Z,4.50
2018-09-30T05:24:20.366Z,4.50
2018-09-30T05:26:48.815Z,4.40
2018-09-30T05:29:17.194Z,4.30
2018-09-30T05:31:45.637Z,4.30
2018-09-30T05:34:14.152Z,4.30
2018-09-30T05:36:42.625Z,4.30
2018-09-30T05:39:11.779Z,4.30
2018-09-30T05:41:40.806Z,4.30
2018-09-30T05:44:09.895Z,4.30
2018-09-30T05:46:38.829Z,4.10
2018-09-30T05:49:07.684Z,4.20
2018-09-30T05:51:36.464Z,4.20
2018-09-30T05:54:05.267Z,4.20
2018-09-30T05:56:34.719Z,4.20
2018-09-30T05:59:03.837Z,4.20
2018-09-30T06:01:32.560Z,4.20
2018-09-30T06:04:01.128Z,4.20
2018-09-30T06:06:30.337Z,4.20
2018-09-30T06:08:58.911Z,4.30
2018-09-30T06:11:27.365Z,4.20
2018-09-30T06:13:55.894Z,4.30
2018-09-30T06:16:24.270Z,4.30
2018-09-30T06:18:53.126Z,4.40
2018-09-30T06:21:21.505Z,4.50
2018-09-30T06:23:49.985Z,4.50
2018-09-30T06:26:18.429Z,4.60
2018-09-30T06:28:46.835Z,4.60
2018-09-30T06:31:15.234Z,4.70
2018-09-30T06:33:43.800Z,4.50
2018-09-30T06:36:12.238Z,4.50
2018-09-30T06:38:40.696Z,4.60
2018-09-30T06:41:09.124Z,4.70
2018-09-30T06:43:37.582Z,4.90
2018-09-30T06:46:06.049Z,5.00
2018-09-30T06:48:34.498Z,5.10
2018-09-30T06:51:03.089Z,5.20
2018-09-30T06:53:31.446Z,5.40
2018-09-30T06:55:59.970Z,5.70
2018-09-30T06:58:28.440Z,6.00
2018-09-30T07:00:57.502Z,6.60
2018-09-30T07:03:25.915Z,7.30
2018-09-30T07:05:54.336Z,7.70
2018-09-30T07:08:22.818Z,7.80
2018-09-30T07:10:51.275Z,8.50
2018-09-30T07:13:19.669Z,8.40
2018-09-30T07:15:48.202Z,8.60
2018-09-30T07:18:17.180Z,8.70
2018-09-30T07:20:45.672Z,9.00
2018-09-30T07:23:14.119Z,9.30
2018-09-30T07:25:42.576Z,9.90
2018-09-30T07:28:11.027Z,10.10
2018-09-30T07:30:39.471Z,9.90
2018-09-30T07:33:09.000Z,10.30
2018-09-30T07:35:37.575Z,10.00
2018-09-30T07:38:06.041Z,10.10
2018-09-30T07:40:34.494Z,11.00
2018-09-30T07:43:03.989Z,11.40
2018-09-30T07:45:32.500Z,11.00
2018-09-30T07:48:00.898Z,11.40
2018-09-30T07:50:29.424Z,11.00
2018-09-30T07:52:57.883Z,11.20
2018-09-30T07:55:26.338Z,11.40
2018-09-30T07:57:55.180Z,11.90
2018-09-30T08:00:23.622Z,11.30
2018-09-30T08:02:52.095Z,11.70
2018-09-30T08:05:20.558Z,12.00
2018-09-30T08:07:49.062Z,12.00
2018-09-30T08:10:17.546Z,12.30
2018-09-30T08:12:46.049Z,12.10
2018-09-30T08:15:14.549Z,13.00
2018-09-30T08:17:43.958Z,13.20
2018-09-30T08:20:12.374Z,13.50
2018-09-30T08:22:40.796Z,13.80
2018-09-30T08:25:09.225Z,13.70
2018-09-30T08:27:37.675Z,13.90
2018-09-30T08:30:06.243Z,13.80
2018-09-30T08:32:35.907Z,14.10
2018-09-30T08:35:04.990Z,14.60
2018-09-30T08:37:39.956Z,14.20
2018-09-30T08:40:08.710Z,14.70
2018-09-30T08:42:37.142Z,15.00
2018-09-30T08:45:06.408Z,14.90
2018-09-30T08:47:35.281Z,15.00
2018-09-30T08:50:03.764Z,15.70
2018-09-30T08:52:32.372Z,15.80
2018-09-30T08:55:01.085Z,15.60
2018-09-30T08:57:29.732Z,15.80
2018-09-30T08:59:58.463Z,16.30
2018-09-30T09:02:26.929Z,16.60
2018-09-30T09:04:55.511Z,16.70
2018-09-30T09:07:24.120Z,16.90
2018-09-30T09:09:53.376Z,16.90
2018-09-30T09:12:21.870Z,17.00
2018-09-30T09:14:50.466Z,17.10
2018-09-30T09:17:18.950Z,16.90
2018-09-30T09:19:48.303Z,16.90
2018-09-30T09:22:17.673Z,17.50
2018-09-30T09:24:46.115Z,17.80
2018-09-30T09:27:14.708Z,17.70
2018-09-30T09:29:43.324Z,17.00
2018-09-30T09:32:11.778Z,17.20
2018-09-30T09:34:40.252Z,16.80
2018-09-30T09:37:09.991Z,17.50
2018-09-30T09:39:38.740Z,17.40
2018-09-30T09:42:08.584Z,17.50
2018-09-30T09:44:38.351Z,18.20
2018-09-30T09:47:07.673Z,18.70
2018-09-30T09:49:38.058Z,19.10
2018-09-30T09:52:06.764Z,19.10
2018-09-30T09:54:35.893Z,18.50
2018-09-30T09:57:04.327Z,18.40
2018-09-30T09:59:32.865Z,18.70
2018-09-30T10:02:01.239Z,19.00
2018-09-30T10:04:29.740Z,19.50
2018-09-30T10:06:58.353Z,19.90
2018-09-30T10:09:27.098Z,20.20
2018-09-30T10:11:55.709Z,20.20
2018-09-30T10:14:24.250Z,20.30
2018-09-30T10:16:52.889Z,20.80
2018-09-30T10:19:21.304Z,20.90
2018-09-30T10:21:50.447Z,20.60
2018-09-30T10:24:18.902Z,20.90
2018-09-30T10:26:47.397Z,21.50
2018-09-30T10:29:15.913Z,21.50
2018-09-30T10:31:44.384Z,21.60
2018-09-30T10:34:12.992Z,21.40
2018-09-30T10:36:41.788Z,20.90
2018-09-30T10:39:11.253Z,20.50
2018-09-30T10:41:40.106Z,21.20
2018-09-30T10:44:08.702Z,21.40
2018-09-30T10:46:37.206Z,21.10
2018-09-30T10:49:06.409Z,20.40
2018-09-30T10:51:36.129Z,20.40
2018-09-30T10:54:08.175Z,21.30
2018-09-30T10:56:38.113Z,21.50
2018-09-30T10:59:07.256Z,21.60
2018-09-30T11:01:35.727Z,21.70
2018-09-30T11:04:04.371Z,21.90
2018-09-30T11:06:32.900Z,21.90
2018-09-30T11:09:01.494Z,22.30
2018-09-30T11:11:30.004Z,21.80
2018-09-30T11:14:00.127Z,22.00
2018-09-30T11:16:28.882Z,22.20
2018-09-30T11:19:00.151Z,22.30
2018-09-30T11:21:29.232Z,22.10
2018-09-30T11:24:01.672Z,22.10
2018-09-30T11:26:30.382Z,21.90
2018-09-30T11:28:59.925Z,21.00
2018-09-30T11:31:28.450Z,21.00
2018-09-30T11:33:56.903Z,20.70
2018-09-30T11:36:25.354Z,21.00
2018-09-30T11:38:53.971Z,21.10
2018-09-30T11:41:22.491Z,21.20
2018-09-30T11:43:50.932Z,21.30
2018-09-30T11:46:19.484Z,21.10
2018-09-30T11:48:47.894Z,21.50
2018-09-30T11:51:16.342Z,21.60
2018-09-30T11:53:45.580Z,21.30
2018-09-30T11:56:14.010Z,21.00
2018-09-30T11:58:43.047Z,20.70
2018-09-30T12:01:11.541Z,20.30
2018-09-30T12:03:40.014Z,20.00
2018-09-30T12:06:08.449Z,19.90
2018-09-30T12:08:37.020Z,19.80
2018-09-30T12:11:05.459Z,19.50
2018-09-30T12:13:33.888Z,19.50
2018-09-30T12:16:02.326Z,19.40
2018-09-30T12:18:30.845Z,19.60
2018-09-30T12:20:59.375Z,19.70
2018-09-30T12:23:27.808Z,19.70
2018-09-30T12:25:56.335Z,19.70
2018-09-30T12:28:24.825Z,19.80
2018-09-30T12:30:53.379Z,19.70
2018-09-30T12:33:21.913Z,19.60
2018-09-30T12:35:50.430Z,19.50
2018-09-30T12:38:18.844Z,19.80
2018-09-30T12:40:47.277Z,19.80
2018-09-30T12:43:15.773Z,19.70
2018-09-30T12:45:44.329Z,19.70
2018-09-30T12:48:12.754Z,19.60
2018-09-30T12:50:41.248Z,19.50
2018-09-30T12:53:09.738Z,19.20
2018-09-30T12:55:38.265Z,19.20
2018-09-30T12:58:06.939Z,19.00
2018-09-30T13:00:35.394Z,18.90
2018-09-30T13:03:03.875Z,18.90
2018-09-30T13:05:32.402Z,18.90
2018-09-30T13:08:01.798Z,18.80
2018-09-30T13:10:30.220Z,19.00
2018-09-30T13:12:59.748Z,19.00
2018-09-30T13:15:29.015Z,19.20
2018-09-30T13:17:57.450Z,19.20
2018-09-30T13:20:25.963Z,19.10
2018-09-30T13:22:54.417Z,19.10
2018-09-30T13:25:22.864Z,18.90
2018-09-30T13:27:51.428Z,18.90
2018-09-30T13:30:20.223Z,18.90
2018-09-30T13:32:48.649Z,18.90
2018-09-30T13:35:17.079Z,18.90
2018-09-30T13:37:45.541Z,19.00
2018-09-30T13:40:14.159Z,18.90
2018-09-30T13:42:42.445Z,18.70
2018-09-30T13:45:10.880Z,18.60
2018-09-30T13:47:39.289Z,18.70
2018-09-30T13:50:07.835Z,18.70
2018-09-30T13:52:36.269Z,18.70
2018-09-30T13:55:05.407Z,18.50
2018-09-30T13:57:33.914Z,18.40
2018-09-30T14:00:02.321Z,18.70
2018-09-30T14:02:30.721Z,18.80
2018-09-30T14:04:59.188Z,18.70
2018-09-30T14:07:27.609Z,18.70
2018-09-30T14:09:56.042Z,18.70
2018-09-30T14:12:26.857Z,18.50
2018-09-30T14:14:55.737Z,18.40
2018-09-30T14:17:24.713Z,18.30
2018-09-30T14:19:53.175Z,18.40
2018-09-30T14:22:21.553Z,18.50
2018-09-30T14:24:50.067Z,18.60
2018-09-30T14:27:18.635Z,18.50
2018-09-30T14:29:46.906Z,18.50
2018-09-30T14:32:15.432Z,18.50
2018-09-30T14:34:43.878Z,18.50
2018-09-30T14:37:12.350Z,18.50
2018-09-30T14:39:40.833Z,18.40
2018-09-30T14:42:09.637Z,18.40
2018-09-30T14:44:38.198Z,18.50
2018-09-30T14:47:06.856Z,18.40
2018-09-30T14:49:35.303Z,18.50
2018-09-30T14:52:03.792Z,18.50
2018-09-30T14:54:32.338Z,18.50
2018-09-30T14:57:00.764Z,18.60
2018-09-30T14:59:29.436Z,18.60
2018-09-30T15:01:59.313Z,18.80
2018-09-30T15:04:27.933Z,18.80
2018-09-30T15:06:56.460Z,18.70
2018-09-30T15:09:25.502Z,18.80
2018-09-30T15:11:54.071Z,18.90
2018-09-30T15:14:22.523Z,18.80
2018-09-30T15:16:51.026Z,18.70
2018-09-30T15:19:19.492Z,18.50
2018-09-30T15:21:47.918Z,18.50
2018-09-30T15:24:16.335Z,18.60
2018-09-30T15:26:44.778Z,18.40
2018-09-30T15:29:13.314Z,18.30
2018-09-30T15:31:41.884Z,18.30
2018-09-30T15:34:10.331Z,18.20
2018-09-30T15:36:38.774Z,18.20
2018-09-30T15:39:09.463Z,18.10
2018-09-30T15:41:38.188Z,18.10
2018-09-30T15:44:07.502Z,18.10
2018-09-30T15:46:35.974Z,18.20
2018-09-30T15:49:04.352Z,18.10
2018-09-30T15:51:32.785Z,18.10
2018-09-30T15:54:01.242Z,18.10
2018-09-30T15:56:29.669Z,18.10
2018-09-30T15:58:58.495Z,17.90
2018-09-30T16:01:26.900Z,17.80
2018-09-30T16:03:55.626Z,17.70
2018-09-30T16:06:24.494Z,17.70
2018-09-30T16:08:53.136Z,17.70
2018-09-30T16:11:23.519Z,17.70
2018-09-30T16:13:52.697Z,17.70
2018-09-30T16:16:21.112Z,17.60
2018-09-30T16:18:49.636Z,17.60
2018-09-30T16:21:18.266Z,17.50
2018-09-30T16:23:47.121Z,17.30
2018-09-30T16:26:17.660Z,17.20
2018-09-30T16:28:46.264Z,17.10
2018-09-30T16:31:14.956Z,17.00
2018-09-30T16:33:44.513Z,17.00
2018-09-30T16:36:12.969Z,16.80
2018-09-30T16:38:41.450Z,16.80
2018-09-30T16:41:10.016Z,16.70
2018-09-30T16:43:38.525Z,16.70
2018-09-30T16:46:07.219Z,16.60
2018-09-30T16:48:35.801Z,16.60
2018-09-30T16:51:04.350Z,16.50
2018-09-30T16:53:32.965Z,16.50
2018-09-30T16:56:01.472Z,16.50
2018-09-30T16:58:29.949Z,16.40
2018-09-30T17:00:58.402Z,16.40
2018-09-30T17:03:26.880Z,16.30
2018-09-30T17:05:55.512Z,16.20
2018-09-30T17:08:23.989Z,16.10
2018-09-30T17:10:52.430Z,16.10
2018-09-30T17:13:20.894Z,16.00
2018-09-30T17:15:49.623Z,16.00
2018-09-30T17:18:18.189Z,16.00
2018-09-30T17:20:47.989Z,16.00
2018-09-30T17:23:16.509Z,15.90
2018-09-30T17:25:45.169Z,15.90
2018-09-30T17:28:13.701Z,15.80
2018-09-30T17:30:42.276Z,15.70
2018-09-30T17:33:10.921Z,15.70
2018-09-30T17:35:39.401Z,15.60
2018-09-30T17:38:08.001Z,15.60
2018-09-30T17:40:36.678Z,15.60
2018-09-30T17:43:05.127Z,15.50
2018-09-30T17:45:33.660Z,15.40
2018-09-30T17:48:02.194Z,15.30
2018-09-30T17:50:30.629Z,15.30
2018-09-30T17:52:59.185Z,15.30
2018-09-30T17:55:28.406Z,15.20
2018-09-30T17:57:56.943Z,15.20
2018-09-30T18:00:25.485Z,15.10
2018-09-30T18:02:54.139Z,15.10
2018-09-30T18:05:22.557Z,15.10
2018-09-30T18:07:51.105Z,15.00
2018-09-30T18:10:19.632Z,15.00
2018-09-30T18:12:48.171Z,14.90
2018-09-30T18:15:16.618Z,14.90
2018-09-30T18:17:45.233Z,14.80
2018-09-30T18:20:13.794Z,14.70
2018-09-30T18:22:42.324Z,14.70
2018-09-30T18:25:11.490Z,14.70
2018-09-30T18:27:40.261Z,14.60
2018-09-30T18:30:09.280Z,14.60
2018-09-30T18:32:37.874Z,14.50
2018-09-30T18:35:06.536Z,14.50
2018-09-30T18:37:36.754Z,14.50
2018-09-30T18:40:05.663Z,14.40
2018-09-30T18:42:35.957Z,14.30
2018-09-30T18:45:04.770Z,14.20
2018-09-30T18:47:34.211Z,14.10
2018-09-30T18:50:03.026Z,14.00
2018-09-30T18:52:32.463Z,14.00
2018-09-30T18:55:01.257Z,14.00
2018-09-30T18:57:30.269Z,14.00
2018-09-30T18:59:59.044Z,14.10
2018-09-30T19:02:27.827Z,14.00
2018-09-30T19:04:56.615Z,14.00
2018-09-30T19:07:25.349Z,14.00
2018-09-30T19:09:54.211Z,13.90
2018-09-30T19:12:22.990Z,13.70
2018-09-30T19:14:51.907Z,13.70
2018-09-30T19:17:20.673Z,13.60
2018-09-30T19:19:49.420Z,13.60
2018-09-30T19:22:19.107Z,13.60
2018-09-30T19:24:47.732Z,13.70
2018-09-30T19:27:16.235Z,13.70
2018-09-30T19:29:44.667Z,13.60
2018-09-30T19:32:14.233Z,13.50
2018-09-30T19:34:42.841Z,13.50
2018-09-30T19:37:11.323Z,13.40
2018-09-30T19:39:39.892Z,13.30
2018-09-30T19:42:09.109Z,13.40
2018-09-30T19:44:38.674Z,13.40
2018-09-30T19:47:07.302Z,13.30
2018-09-30T19:49:35.807Z,13.30
2018-09-30T19:52:04.430Z,13.20
2018-09-30T19:54:33.683Z,13.20
2018-09-30T19:57:09.475Z,13.20
2018-09-30T19:59:38.169Z,13.20
2018-09-30T20:02:07.114Z,13.20
2018-09-30T20:04:35.839Z,13.30
2018-09-30T20:07:04.634Z,13.30
2018-09-30T20:09:33.187Z,13.40
2018-09-30T20:12:01.643Z,13.40
2018-09-30T20:14:30.145Z,13.40
2018-09-30T20:16:58.549Z,13.40
2018-09-30T20:19:27.031Z,13.40
2018-09-30T20:21:55.522Z,13.40
2018-09-30T20:24:23.961Z,13.40
2018-09-30T20:26:52.405Z,13.40
2018-09-30T20:29:20.826Z,13.30
2018-09-30T20:31:49.330Z,13.30
2018-09-30T20:34:17.781Z,13.30
2018-09-30T20:36:46.190Z,13.20
2018-09-30T20:39:14.642Z,13.30
2018-09-30T20:41:43.049Z,13.30
2018-09-30T20:44:11.861Z,13.40
2018-09-30T20:46:40.530Z,13.40
2018-09-30T20:49:09.183Z,13.40
2018-09-30T20:51:37.677Z,13.40
2018-09-30T20:54:06.314Z,13.40
2018-09-30T20:56:35.117Z,13.40
2018-09-30T20:59:03.645Z,13.40
2018-09-30T21:01:32.859Z,13.30
2018-09-30T21:04:01.499Z,13.30
2018-09-30T21:06:32.197Z,13.40
2018-09-30T21:09:00.642Z,13.40
2018-09-30T21:11:29.114Z,13.40
2018-09-30T21:13:57.839Z,13.40
2018-09-30T21:16:26.285Z,13.40
2018-09-30T21:18:54.711Z,13.20
2018-09-30T21:21:23.127Z,13.20
2018-09-30T21:23:51.551Z,13.10
2018-09-30T21:26:19.960Z,13.10
2018-09-30T21:28:48.384Z,13.00
2018-09-30T21:31:16.861Z,12.90
2018-09-30T21:33:45.341Z,12.90
2018-09-30T21:36:13.918Z,13.00
2018-09-30T21:38:42.395Z,13.00
2018-09-30T21:41:10.903Z,13.00
2018-09-30T21:43:39.362Z,13.00
2018-09-30T21:46:07.955Z,13.00
2018-09-30T21:48:36.380Z,12.90
2018-09-30T21:51:04.869Z,12.90
2018-09-30T21:53:33.296Z,12.90
2018-09-30T21:56:01.765Z,12.90
2018-09-30T21:58:30.161Z,12.80
2018-09-30T22:01:00.031Z,12.90
2018-09-30T22:03:28.860Z,12.90
2018-09-30T22:05:57.511Z,12.90
2018-09-30T22:08:26.024Z,12.90
2018-09-30T22:10:54.452Z,12.90
2018-09-30T22:13:23.031Z,12.90
2018-09-30T22:15:51.464Z,12.90
2018-09-30T22:18:19.992Z,12.80
2018-09-30T22:20:48.380Z,12.80
2018-09-30T22:23:16.764Z,12.70
2018-09-30T22:25:45.857Z,12.80
2018-09-30T22:28:14.316Z,12.80
2018-09-30T22:30:42.774Z,12.70
2018-09-30T22:33:11.214Z,12.70
2018-09-30T22:35:39.635Z,12.80
2018-09-30T22:38:08.271Z,12.80
2018-09-30T22:40:36.684Z,12.70
2018-09-30T22:43:05.111Z,12.70
2018-09-30T22:45:33.579Z,12.60
2018-09-30T22:48:02.069Z,12.60
2018-09-30T22:50:30.432Z,12.70
2018-09-30T22:52:59.812Z,12.70
2018-09-30T22:55:28.296Z,12.70
2018-09-30T22:57:56.749Z,12.70
2018-09-30T23:00:25.199Z,12.60
2018-09-30T23:02:53.596Z,12.60
2018-09-30T23:05:22.036Z,12.60
2018-09-30T23:07:50.628Z,12.60
2018-09-30T23:10:19.005Z,12.50
2018-09-30T23:12:47.436Z,12.50
2018-09-30T23:15:15.865Z,12.50
2018-09-30T23:17:44.393Z,12.40
2018-09-30T23:20:17.649Z,12.50
2018-09-30T23:22:46.625Z,12.50
2018-09-30T23:25:15.066Z,12.50
2018-09-30T23:27:43.757Z,12.50
2018-09-30T23:30:12.308Z,12.50
2018-09-30T23:32:40.744Z,12.50
2018-09-30T23:35:09.261Z,12.50
2018-09-30T23:37:37.713Z,12.50
2018-09-30T23:40:06.586Z,12.50
2018-09-30T23:42:35.104Z,12.40
2018-09-30T23:45:03.596Z,12.40
2018-09-30T23:47:32.017Z,12.40
2018-09-30T23:50:00.418Z,12.40
2018-09-30T23:52:28.881Z,12.40
2018-09-30T23:54:57.271Z,12.30
2018-09-30T23:57:25.678Z,12.30
2018-09-30T23:59:54.150Z,12.20
